createdAt,value
2023-03-22T00:01:41.027Z,62.00
2023-03-22T00:04:12.046Z,61.30
2023-03-22T00:06:40.779Z,59.10
2023-03-22T00:09:11.717Z,59.70
2023-03-22T00:11:42.890Z,57.00
2023-03-22T00:14:14.621Z,56.50
2023-03-22T00:16:49.979Z,58.00
2023-03-22T00:19:21.603Z,64.90
2023-03-22T00:21:51.346Z,58.10
2023-03-22T00:24:22.239Z,57.10
2023-03-22T00:26:53.266Z,58.50
2023-03-22T00:29:23.869Z,57.30
2023-03-22T00:32:03.050Z,59.00
2023-03-22T00:34:33.905Z,59.50
2023-03-22T00:37:06.218Z,55.00
2023-03-22T00:39:37.379Z,59.30
2023-03-22T00:42:07.895Z,57.10
2023-03-22T00:44:36.876Z,57.00
2023-03-22T00:47:11.887Z,56.30
2023-03-22T00:49:42.539Z,59.80
2023-03-22T00:52:17.960Z,58.30
2023-03-22T00:54:48.827Z,56.70
2023-03-22T00:57:20.402Z,58.00
2023-03-22T00:59:49.482Z,58.60
2023-03-22T01:02:20.954Z,59.10
2023-03-22T01:04:53.388Z,58.50
2023-03-22T01:07:23.853Z,57.20
2023-03-22T01:09:53.837Z,56.80
2023-03-22T01:12:22.489Z,57.20
2023-03-22T01:14:50.929Z,57.80
2023-03-22T01:17:19.815Z,57.10
2023-03-22T01:19:51.596Z,55.30
2023-03-22T01:22:20.166Z,56.80
2023-03-22T01:24:50.900Z,60.20
2023-03-22T01:27:22.658Z,57.00
2023-03-22T01:29:52.539Z,59.90
2023-03-22T01:32:24.870Z,59.30
2023-03-22T01:34:55.780Z,60.90
2023-03-22T01:37:29.815Z,62.00
2023-03-22T01:39:59.760Z,62.60
2023-03-22T01:42:32.097Z,64.20
2023-03-22T01:45:18.812Z,63.30
2023-03-22T01:47:51.364Z,65.70
2023-03-22T01:50:21.106Z,64.90
2023-03-22T01:52:53.037Z,67.00
2023-03-22T01:55:37.239Z,65.40
2023-03-22T01:58:24.519Z,67.00
2023-03-22T02:00:59.539Z,64.60
2023-03-22T02:04:19.957Z,66.00
2023-03-22T02:06:56.189Z,63.10
2023-03-22T02:09:28.506Z,59.20
2023-03-22T02:13:17.291Z,62.10
2023-03-22T02:16:21.322Z,63.90
2023-03-22T02:19:41.947Z,63.50
2023-03-22T02:22:46.328Z,61.90
2023-03-22T02:25:44.219Z,61.40
2023-03-22T02:28:55.657Z,61.80
2023-03-22T02:31:41.961Z,57.40
2023-03-22T02:34:53.623Z,57.60
2023-03-22T02:37:37.493Z,58.90
2023-03-22T02:40:16.649Z,56.20
2023-03-22T02:43:24.537Z,55.20
2023-03-22T02:46:28.494Z,59.10
2023-03-22T02:49:47.401Z,57.60
2023-03-22T02:52:26.557Z,54.10
2023-03-22T02:55:01.405Z,55.20
2023-03-22T02:57:41.815Z,54.70
2023-03-22T03:00:15.976Z,54.30
2023-03-22T03:02:57.244Z,56.30
2023-03-22T03:05:30.253Z,57.70
2023-03-22T03:08:20.589Z,57.30
2023-03-22T03:10:51.453Z,57.50
2023-03-22T03:13:21.199Z,55.90
2023-03-22T03:15:58.895Z,54.50
2023-03-22T03:18:59.627Z,56.30
2023-03-22T03:21:54.007Z,55.80
2023-03-22T03:24:51.807Z,58.20
2023-03-22T03:27:40.422Z,56.50
2023-03-22T03:30:27.791Z,57.50
2023-03-22T03:33:09.606Z,52.60
2023-03-22T03:36:07.990Z,53.20
2023-03-22T03:38:49.373Z,53.80
2023-03-22T03:41:26.086Z,53.60
2023-03-22T03:43:59.168Z,53.10
2023-03-22T03:46:31.275Z,52.30
2023-03-22T03:49:07.756Z,53.50
2023-03-22T03:51:53.074Z,53.40
2023-03-22T03:54:25.218Z,53.30
2023-03-22T03:56:54.611Z,54.00
2023-03-22T03:59:28.960Z,56.00
2023-03-22T04:02:05.960Z,56.10
2023-03-22T04:04:37.145Z,53.50
2023-03-22T04:07:11.031Z,58.00
2023-03-22T04:09:41.512Z,55.30
2023-03-22T04:12:36.503Z,55.90
2023-03-22T04:15:15.262Z,57.30
2023-03-22T04:17:51.046Z,55.90
2023-03-22T04:20:23.370Z,57.00
2023-03-22T04:22:52.441Z,56.70
2023-03-22T04:25:23.534Z,60.50
2023-03-22T04:28:05.961Z,63.30
2023-03-22T04:30:39.120Z,67.20
2023-03-22T04:33:39.688Z,67.20
2023-03-22T04:36:22.993Z,68.80
2023-03-22T04:41:44.285Z,73.20
2023-03-22T04:44:19.512Z,65.90
2023-03-22T04:46:51.264Z,68.10
2023-03-22T04:49:24.591Z,65.60
2023-03-22T04:54:32.917Z,58.10
2023-03-22T04:57:04.828Z,61.10
2023-03-22T04:59:41.175Z,60.50
2023-03-22T05:02:17.323Z,61.50
2023-03-22T05:04:51.830Z,64.00
2023-03-22T05:07:41.403Z,63.70
2023-03-22T05:10:13.386Z,70.20
2023-03-22T05:12:42.476Z,65.90
2023-03-22T05:15:24.145Z,74.10
2023-03-22T05:17:56.028Z,69.00
2023-03-22T05:20:29.211Z,70.40
2023-03-22T05:23:19.476Z,80.50
2023-03-22T05:25:55.410Z,84.80
2023-03-22T05:28:27.853Z,84.10
2023-03-22T05:31:19.749Z,92.40
2023-03-22T05:34:01.165Z,120.20
2023-03-22T05:36:31.300Z,108.70
2023-03-22T05:39:14.754Z,93.80
2023-03-22T05:41:47.451Z,89.70
2023-03-22T05:44:26.003Z,81.40
2023-03-22T05:47:08.312Z,81.50
2023-03-22T05:49:54.929Z,77.90
2023-03-22T05:52:29.948Z,73.30
2023-03-22T05:55:20.614Z,73.60
2023-03-22T05:57:53.806Z,67.70
2023-03-22T06:00:38.745Z,62.40
2023-03-22T06:03:26.676Z,57.00
2023-03-22T06:06:01.709Z,54.80
2023-03-22T06:09:04.326Z,55.90
2023-03-22T06:11:45.325Z,56.70
2023-03-22T06:14:18.558Z,63.60
2023-03-22T06:17:14.086Z,65.20
2023-03-22T06:19:55.474Z,71.00
2023-03-22T06:22:35.772Z,69.50
2023-03-22T06:25:14.677Z,91.10
2023-03-22T06:27:57.565Z,84.90
2023-03-22T06:30:28.985Z,64.40
2023-03-22T06:33:20.812Z,64.90
2023-03-22T06:35:58.650Z,80.50
2023-03-22T06:38:43.806Z,62.70
2023-03-22T06:41:15.602Z,89.90
2023-03-22T06:43:49.998Z,65.90
2023-03-22T06:46:38.888Z,72.10
2023-03-22T06:49:18.962Z,66.00
2023-03-22T06:51:54.603Z,66.10
2023-03-22T06:54:36.811Z,75.50
2023-03-22T06:59:40.201Z,65.10
2023-03-22T07:02:13.794Z,58.00
2023-03-22T07:04:48.696Z,66.10
2023-03-22T07:07:21.298Z,66.50
2023-03-22T07:10:01.267Z,66.80
2023-03-22T07:12:31.122Z,70.70
2023-03-22T07:15:06.447Z,72.70
2023-03-22T07:17:48.866Z,63.00
2023-03-22T07:22:57.869Z,67.60
2023-03-22T07:25:30.722Z,69.20
2023-03-22T07:28:17.183Z,64.00
2023-03-22T07:31:09.774Z,57.50
2023-03-22T07:34:00.245Z,61.50
2023-03-22T07:36:38.255Z,70.80
2023-03-22T07:39:09.124Z,71.20
2023-03-22T07:41:41.331Z,63.50
2023-03-22T07:44:45.458Z,60.60
2023-03-22T07:47:39.563Z,54.40
2023-03-22T07:50:39.804Z,52.70
2023-03-22T07:53:19.675Z,55.20
2023-03-22T07:55:53.560Z,50.90
2023-03-22T07:58:27.043Z,48.00
2023-03-22T08:01:14.521Z,45.20
2023-03-22T08:03:52.096Z,40.10
2023-03-22T08:06:49.529Z,40.60
2023-03-22T08:09:20.603Z,42.00
2023-03-22T08:12:01.360Z,43.30
2023-03-22T08:14:37.428Z,41.00
2023-03-22T08:17:10.838Z,55.50
2023-03-22T08:19:46.663Z,123.40
2023-03-22T08:22:29.769Z,42.90
2023-03-22T08:25:29.665Z,39.60
2023-03-22T08:28:08.506Z,42.40
2023-03-22T08:30:44.201Z,39.60
2023-03-22T08:33:17.773Z,40.50
2023-03-22T08:35:55.156Z,41.00
2023-03-22T08:38:32.802Z,45.50
2023-03-22T08:41:07.213Z,44.10
2023-03-22T08:43:40.443Z,42.80
2023-03-22T08:46:11.550Z,46.00
2023-03-22T08:48:41.239Z,44.40
2023-03-22T08:51:22.459Z,43.30
2023-03-22T08:54:01.986Z,43.70
2023-03-22T08:56:49.936Z,41.10
2023-03-22T08:59:44.520Z,44.30
2023-03-22T09:02:21.999Z,42.20
2023-03-22T09:04:52.432Z,35.70
2023-03-22T09:07:23.951Z,34.60
2023-03-22T09:10:03.207Z,31.80
2023-03-22T09:12:33.066Z,29.20
2023-03-22T09:15:05.420Z,28.30
2023-03-22T09:17:36.135Z,26.80
2023-03-22T09:20:15.192Z,27.90
2023-03-22T09:22:49.234Z,25.50
2023-03-22T09:25:21.317Z,25.70
2023-03-22T09:27:50.058Z,26.50
2023-03-22T09:30:25.144Z,28.00
2023-03-22T09:32:55.921Z,23.30
2023-03-22T09:35:34.515Z,23.60
2023-03-22T09:38:13.370Z,31.50
2023-03-22T09:41:14.356Z,23.30
2023-03-22T09:43:54.293Z,20.00
2023-03-22T09:46:40.890Z,20.20
2023-03-22T09:49:38.551Z,20.50
2023-03-22T09:52:18.663Z,25.30
2023-03-22T09:54:53.566Z,23.70
2023-03-22T09:57:42.630Z,23.60
2023-03-22T10:01:05.313Z,22.40
2023-03-22T10:04:37.475Z,22.80
2023-03-22T10:07:30.052Z,21.30
2023-03-22T10:10:10.260Z,19.70
2023-03-22T10:13:06.077Z,20.50
2023-03-22T10:16:20.649Z,19.80
2023-03-22T10:19:14.790Z,18.80
2023-03-22T10:21:49.801Z,19.70
2023-03-22T10:24:34.567Z,19.20
2023-03-22T10:27:18.730Z,19.90
2023-03-22T10:29:55.523Z,21.10
2023-03-22T10:33:01.694Z,20.10
2023-03-22T10:35:38.138Z,22.10
2023-03-22T10:38:16.459Z,23.10
2023-03-22T10:40:50.134Z,19.30
2023-03-22T10:44:02.863Z,20.50
2023-03-22T10:46:45.176Z,20.10
2023-03-22T10:49:47.755Z,20.40
2023-03-22T10:52:23.921Z,20.60
2023-03-22T10:55:05.588Z,20.30
2023-03-22T10:57:39.539Z,21.70
2023-03-22T11:00:17.751Z,19.70
2023-03-22T11:03:02.157Z,20.60
2023-03-22T11:05:35.099Z,18.80
2023-03-22T11:08:08.341Z,20.20
2023-03-22T11:10:52.276Z,20.40
2023-03-22T11:13:48.605Z,24.00
2023-03-22T11:16:22.608Z,20.20
2023-03-22T11:19:02.144Z,21.80
2023-03-22T11:21:33.137Z,19.60
2023-03-22T11:25:06.300Z,19.30
2023-03-22T11:31:24.017Z,19.30
2023-03-22T11:34:01.767Z,19.10
2023-03-22T11:36:44.973Z,20.50
2023-03-22T11:39:21.716Z,19.00
2023-03-22T11:42:08.364Z,17.60
2023-03-22T11:44:39.641Z,16.20
2023-03-22T11:47:17.442Z,20.50
2023-03-22T11:49:54.296Z,22.60
2023-03-22T11:52:31.411Z,19.00
2023-03-22T11:55:20.053Z,14.70
2023-03-22T11:57:56.915Z,16.30
2023-03-22T12:00:37.346Z,16.10
2023-03-22T12:03:24.070Z,14.70
2023-03-22T12:06:02.442Z,17.90
2023-03-22T12:08:54.955Z,23.80
2023-03-22T12:11:57.965Z,19.00
2023-03-22T12:15:15.816Z,17.80
2023-03-22T12:18:08.424Z,15.30
2023-03-22T12:21:09.047Z,17.00
2023-03-22T12:24:01.131Z,15.70
2023-03-22T12:26:37.872Z,13.70
2023-03-22T12:29:25.388Z,14.80
2023-03-22T12:32:11.579Z,13.70
2023-03-22T12:34:52.524Z,13.50
2023-03-22T12:37:35.739Z,13.70
2023-03-22T12:40:44.418Z,15.40
2023-03-22T12:43:38.031Z,19.60
2023-03-22T12:46:56.509Z,18.60
2023-03-22T12:49:52.567Z,20.70
2023-03-22T12:52:56.230Z,12.70
2023-03-22T12:55:48.701Z,14.70
2023-03-22T12:58:34.445Z,13.60
2023-03-22T13:01:45.670Z,10.90
2023-03-22T13:04:37.859Z,13.20
2023-03-22T13:07:43.792Z,11.80
2023-03-22T13:10:38.834Z,10.40
2023-03-22T13:13:21.855Z,14.80
2023-03-22T13:16:12.953Z,12.10
2023-03-22T13:18:47.314Z,10.30
2023-03-22T13:21:25.783Z,11.30
2023-03-22T13:25:16.508Z,11.80
2023-03-22T13:28:30.633Z,11.50
2023-03-22T13:31:06.647Z,12.10
2023-03-22T13:33:53.027Z,12.80
2023-03-22T13:36:28.997Z,12.00
2023-03-22T13:39:29.594Z,12.00
2023-03-22T13:42:29.198Z,12.00
2023-03-22T13:45:07.324Z,12.80
2023-03-22T13:47:47.984Z,12.00
2023-03-22T13:50:29.307Z,11.80
2023-03-22T13:53:17.802Z,12.80
2023-03-22T13:56:10.475Z,12.60
2023-03-22T13:58:54.080Z,11.60
2023-03-22T14:01:39.701Z,13.70
2023-03-22T14:04:37.440Z,16.50
2023-03-22T14:07:34.376Z,16.80
2023-03-22T14:10:36.050Z,14.20
2023-03-22T14:13:23.473Z,9.50
2023-03-22T14:16:07.065Z,9.50
2023-03-22T14:18:51.421Z,9.60
